createdAt,value
2023-02-27T00:03:36.032Z,67.95
2023-02-27T00:08:45.117Z,67.83
2023-02-27T00:13:53.680Z,67.70
2023-02-27T00:19:02.784Z,67.55
2023-02-27T00:24:12.135Z,67.45
2023-02-27T00:29:20.799Z,67.38
2023-02-27T00:34:32.949Z,67.31
2023-02-27T00:39:41.216Z,67.21
2023-02-27T00:44:49.467Z,67.18
2023-02-27T00:49:57.157Z,67.12
2023-02-27T00:55:05.757Z,67.05
2023-02-27T01:00:16.497Z,67.00
2023-02-27T01:05:26.357Z,66.90
2023-02-27T01:10:35.112Z,66.82
2023-02-27T01:15:43.364Z,66.74
2023-02-27T01:20:56.071Z,66.67
2023-02-27T01:26:04.676Z,66.61
2023-02-27T01:31:13.219Z,66.53
2023-02-27T01:36:24.638Z,66.49
2023-02-27T01:41:32.108Z,66.43
2023-02-27T01:46:42.391Z,66.41
2023-02-27T01:51:56.289Z,66.36
2023-02-27T01:57:07.105Z,66.34
2023-02-27T02:02:23.044Z,66.39
2023-02-27T02:07:32.261Z,66.71
2023-02-27T02:12:42.524Z,66.78
2023-02-27T02:18:02.632Z,66.74
2023-02-27T02:23:41.208Z,66.69
2023-02-27T02:29:29.356Z,66.69
2023-02-27T02:35:05.778Z,66.74
2023-02-27T02:40:26.140Z,66.73
2023-02-27T02:45:42.610Z,66.63
2023-02-27T02:50:58.607Z,66.57
2023-02-27T02:56:13.269Z,66.50
2023-02-27T03:01:28.714Z,66.38
2023-02-27T03:06:40.696Z,66.29
2023-02-27T03:11:53.239Z,66.20
2023-02-27T03:17:07.696Z,66.16
2023-02-27T03:22:21.344Z,66.20
2023-02-27T03:27:33.252Z,66.36
2023-02-27T03:32:47.531Z,66.58
2023-02-27T03:38:03.841Z,66.65
2023-02-27T03:43:24.277Z,66.76
2023-02-27T03:48:34.964Z,66.81
2023-02-27T03:53:57.899Z,66.88
2023-02-27T03:59:06.218Z,66.85
2023-02-27T04:04:18.316Z,66.82
2023-02-27T04:10:24.564Z,66.97
2023-02-27T04:15:42.845Z,67.12
2023-02-27T04:20:56.926Z,67.44
2023-02-27T04:26:17.622Z,68.91
2023-02-27T04:31:31.985Z,69.05
2023-02-27T04:36:48.501Z,67.36
2023-02-27T04:42:00.274Z,66.67
2023-02-27T04:47:11.513Z,66.93
2023-02-27T04:52:24.424Z,67.15
2023-02-27T04:57:36.679Z,67.70
2023-02-27T05:02:48.644Z,68.61
2023-02-27T05:08:04.944Z,68.58
2023-02-27T05:13:17.954Z,68.39
2023-02-27T05:18:27.338Z,67.56
2023-02-27T05:23:46.025Z,67.11
2023-02-27T05:29:04.661Z,67.40
2023-02-27T05:34:20.411Z,67.82
2023-02-27T05:39:32.508Z,67.91
2023-02-27T05:44:42.472Z,68.07
2023-02-27T05:49:54.357Z,68.51
2023-02-27T05:55:06.372Z,69.29
2023-02-27T06:00:23.132Z,69.10
2023-02-27T06:05:32.278Z,68.92
2023-02-27T06:10:40.438Z,69.05
2023-02-27T06:15:48.174Z,69.26
2023-02-27T06:20:55.763Z,69.52
2023-02-27T06:26:04.576Z,69.74
2023-02-27T06:31:12.773Z,69.95
2023-02-27T06:36:21.064Z,70.24
2023-02-27T06:41:29.480Z,70.59
2023-02-27T06:46:37.895Z,71.60
2023-02-27T06:51:46.457Z,71.96
2023-02-27T06:56:54.665Z,71.68
2023-02-27T07:02:03.768Z,71.67
2023-02-27T07:07:36.065Z,71.38
2023-02-27T07:12:43.894Z,71.34
2023-02-27T07:17:52.002Z,71.39
2023-02-27T07:22:59.716Z,71.44
2023-02-27T07:28:07.872Z,71.48
2023-02-27T07:33:15.858Z,71.48
2023-02-27T07:38:24.530Z,71.51
2023-02-27T07:43:32.889Z,71.53
2023-02-27T07:48:41.226Z,71.51
2023-02-27T07:53:49.460Z,71.48
2023-02-27T07:58:57.747Z,71.35
2023-02-27T08:04:06.044Z,71.22
2023-02-27T08:09:14.603Z,71.05
2023-02-27T08:14:23.666Z,70.92
2023-02-27T08:19:32.085Z,70.77
2023-02-27T08:24:40.937Z,70.63
2023-02-27T08:29:49.534Z,70.43
2023-02-27T08:34:58.053Z,70.20
2023-02-27T08:40:10.241Z,69.90
2023-02-27T08:45:19.123Z,69.60
2023-02-27T08:50:27.753Z,69.15
2023-02-27T08:55:35.969Z,68.70
2023-02-27T09:00:44.650Z,67.74
2023-02-27T09:05:52.201Z,67.44
2023-02-27T09:11:03.638Z,67.45
2023-02-27T09:16:13.902Z,67.52
2023-02-27T09:21:23.138Z,67.64
2023-02-27T09:26:42.823Z,67.64
2023-02-27T09:31:55.824Z,67.60
2023-02-27T09:37:05.379Z,67.20
2023-02-27T09:42:21.316Z,66.95
2023-02-27T09:47:36.746Z,66.99
2023-02-27T09:52:45.801Z,66.92
2023-02-27T09:58:02.816Z,66.89
2023-02-27T10:03:22.222Z,66.80
2023-02-27T10:08:39.812Z,66.84
2023-02-27T10:14:00.273Z,66.80
2023-02-27T10:19:16.171Z,66.38
2023-02-27T10:24:28.034Z,66.07
2023-02-27T10:29:40.404Z,66.11
2023-02-27T10:34:53.756Z,65.94
2023-02-27T10:40:06.650Z,65.75
2023-02-27T10:45:18.709Z,65.77
2023-02-27T10:50:30.366Z,65.59
2023-02-27T10:55:40.972Z,65.49
2023-02-27T11:00:55.425Z,65.63
2023-02-27T11:06:07.330Z,65.66
2023-02-27T11:11:15.921Z,65.55
2023-02-27T11:16:25.081Z,65.42
2023-02-27T11:21:34.067Z,65.43
2023-02-27T11:26:55.853Z,65.44
2023-02-27T11:32:11.938Z,65.49
2023-02-27T11:37:30.784Z,65.30
2023-02-27T11:42:46.376Z,65.27
2023-02-27T11:48:01.408Z,65.11
2023-02-27T11:53:31.465Z,65.06
2023-02-27T11:58:48.351Z,65.07
2023-02-27T12:04:04.751Z,65.06
2023-02-27T12:09:26.847Z,64.98
2023-02-27T12:14:42.569Z,65.06
2023-02-27T12:20:02.471Z,64.99
2023-02-27T12:25:19.523Z,64.92
2023-02-27T12:30:32.190Z,64.92
2023-02-27T12:35:43.797Z,64.94
2023-02-27T12:41:09.140Z,64.77
2023-02-27T12:46:40.964Z,64.76
2023-02-27T12:52:02.499Z,64.69
2023-02-27T12:57:39.660Z,64.59
2023-02-27T13:03:01.029Z,64.65
2023-02-27T13:08:16.209Z,64.65
2023-02-27T13:13:29.366Z,64.56
2023-02-27T13:18:42.414Z,64.52
2023-02-27T13:24:05.292Z,64.64
2023-02-27T13:29:20.041Z,64.50
2023-02-27T13:34:34.930Z,64.21
2023-02-27T13:39:56.661Z,64.07
2023-02-27T13:45:08.625Z,63.95
2023-02-27T13:50:53.611Z,63.87
2023-02-27T13:56:23.599Z,63.91
2023-02-27T14:01:32.347Z,63.80
2023-02-27T14:06:49.095Z,63.62
2023-02-27T14:12:02.726Z,63.56
2023-02-27T14:17:14.384Z,63.45
2023-02-27T14:22:44.456Z,63.32
2023-02-27T14:27:59.037Z,63.17
2023-02-27T14:33:19.457Z,62.98
2023-02-27T14:38:34.536Z,62.77
2023-02-27T14:43:45.445Z,62.60
2023-02-27T14:49:00.245Z,62.70
2023-02-27T14:54:15.570Z,62.79
2023-02-27T14:59:29.098Z,62.90
2023-02-27T15:04:37.704Z,62.78
2023-02-27T15:09:50.317Z,62.80
2023-02-27T15:15:01.925Z,62.70
2023-02-27T15:20:27.982Z,62.70
2023-02-27T15:25:39.012Z,62.57
2023-02-27T15:30:52.164Z,62.41
2023-02-27T15:36:00.409Z,62.40
2023-02-27T15:41:11.205Z,62.46
2023-02-27T15:46:18.753Z,62.50
2023-02-27T15:51:29.621Z,62.43
2023-02-27T15:56:40.411Z,62.37
2023-02-27T16:01:50.046Z,62.31
2023-02-27T16:07:05.052Z,62.25
2023-02-27T16:12:26.279Z,62.26
2023-02-27T16:17:36.644Z,62.38
2023-02-27T16:23:06.760Z,62.41
2023-02-27T16:28:19.065Z,62.48
2023-02-27T16:33:29.982Z,62.51
2023-02-27T16:38:39.203Z,62.67
2023-02-27T16:43:48.475Z,62.78
2023-02-27T16:49:04.604Z,62.87
2023-02-27T16:54:21.504Z,62.98
2023-02-27T16:59:35.361Z,63.08
2023-02-27T17:04:44.771Z,63.19
2023-02-27T17:09:52.354Z,63.30
2023-02-27T17:15:00.893Z,63.49
2023-02-27T17:20:11.817Z,63.61
2023-02-27T17:25:20.850Z,63.66
2023-02-27T17:30:30.414Z,63.69
2023-02-27T17:35:39.196Z,63.75
2023-02-27T17:40:47.634Z,63.95
2023-02-27T17:45:56.035Z,64.61
2023-02-27T17:51:10.078Z,65.29
2023-02-27T17:56:19.033Z,65.18
2023-02-27T18:01:28.154Z,64.97
2023-02-27T18:06:37.193Z,64.80
2023-02-27T18:11:45.672Z,64.65
2023-02-27T18:16:54.004Z,64.57
2023-02-27T18:22:02.368Z,64.60
2023-02-27T18:27:09.965Z,64.66
2023-02-27T18:32:19.304Z,64.63
2023-02-27T18:37:27.894Z,64.63
2023-02-27T18:42:37.516Z,64.68
2023-02-27T18:47:46.610Z,64.78
2023-02-27T18:52:56.575Z,64.97
2023-02-27T18:58:06.193Z,65.05
2023-02-27T19:03:14.834Z,64.97
2023-02-27T19:08:25.458Z,64.99
2023-02-27T19:13:34.203Z,65.07
2023-02-27T19:18:42.793Z,65.09
2023-02-27T19:23:51.581Z,65.10
2023-02-27T19:28:59.379Z,65.03
2023-02-27T19:34:07.905Z,64.90
2023-02-27T19:39:16.389Z,64.78
2023-02-27T19:44:24.291Z,64.78
2023-02-27T19:49:31.916Z,64.96
2023-02-27T19:54:41.472Z,65.06
2023-02-27T19:59:50.084Z,65.17
2023-02-27T20:04:58.863Z,65.27
2023-02-27T20:10:07.788Z,65.38
2023-02-27T20:15:15.632Z,65.48
2023-02-27T20:20:24.772Z,65.54
2023-02-27T20:25:33.113Z,65.57
2023-02-27T20:30:42.728Z,65.50
2023-02-27T20:35:51.509Z,65.62
2023-02-27T20:41:02.743Z,65.79
2023-02-27T20:46:13.739Z,66.02
2023-02-27T20:51:23.237Z,66.22
2023-02-27T20:56:33.682Z,66.25
2023-02-27T21:01:42.583Z,66.16
2023-02-27T21:06:51.659Z,66.23
2023-02-27T21:11:59.901Z,66.33
2023-02-27T21:17:08.627Z,66.49
2023-02-27T21:22:17.589Z,66.50
2023-02-27T21:27:25.623Z,66.44
2023-02-27T21:32:33.897Z,66.44
2023-02-27T21:37:47.822Z,66.52
2023-02-27T21:42:56.932Z,66.68
2023-02-27T21:48:05.732Z,66.78
2023-02-27T21:53:14.056Z,66.81
2023-02-27T21:58:21.439Z,66.90
2023-02-27T22:03:35.819Z,67.09
2023-02-27T22:08:44.485Z,67.22
2023-02-27T22:13:52.877Z,67.26
2023-02-27T22:19:00.277Z,67.34
2023-02-27T22:24:12.438Z,67.34
2023-02-27T22:29:18.758Z,67.39
2023-02-27T22:34:26.141Z,67.40
2023-02-27T22:39:33.587Z,67.42
2023-02-27T22:44:41.230Z,67.44
2023-02-27T22:49:51.718Z,67.52
2023-02-27T22:55:00.106Z,67.66
2023-02-27T23:00:12.055Z,67.69
2023-02-27T23:05:18.200Z,67.72
2023-02-27T23:10:27.677Z,67.78
2023-02-27T23:15:39.003Z,67.91
2023-02-27T23:20:47.344Z,67.90
2023-02-27T23:25:55.475Z,67.82
2023-02-27T23:31:03.827Z,67.76
2023-02-27T23:36:12.488Z,67.80
2023-02-27T23:41:21.329Z,67.94
2023-02-27T23:46:30.971Z,68.00
2023-02-27T23:51:39.173Z,68.00
2023-02-27T23:56:50.291Z,68.08
